Jump to content


COMPASS FLIGHT CP2877 FLOWN ON 09-03-2017 BY CAPTAIN JIM BOERMAN

Pilot StatsCaptain Jim Boerman (LDP136) • 4,648.3 total hours • 1,417 total flights [View Logbook]
FLIGHT DETAILS
StatusReceived and approved on 2017-09-03 at 13:09:54
Origin AirportLos Angeles Intl (KLAX) • Los Angeles, California, United States (126 feet MSL)
Filed Flight PlanKLAX JUGLI J10 RUSTT J128 TBC J64 RSK J110 ALS J102 SLN J24 MCI J80 VHP KIND
Destination AirportIndianapolis Intl (KIND) • Indianapolis, Indiana, United States (797 feet MSL)
Alternate AirportLouisville Intl-Standiford (KSDF) • Louisville, Kentucky, United States (501 feet MSL)
AirlineCompass
AircraftEmbraer E-175 (E75 / E175)
FS Aircraft UsedEmbraer 175 delta
Cruising AltitudeFL330
Distance Flown1,574 nautical miles
Passengers Onboard74 passengers (88.10% full)
DEPARTURE DETAILS
Time Out06:02:57
Taxi Data85,697 lbs total with 20,541 lbs of fuel onboard
Takeoff Data06:04:43 (2 minutes after leaving gate/ramp) • 85,650 lbs total • 0° pitch at 0 knots
Departure METARKLAX 031153Z 00000KT 10SM SCT200 28/19 A2987 RMK AO2 SLP111 T02780194 10289 20272 55001
ARRIVAL DETAILS
Landing Data12:00:40 • 71,872 lbs total • 3° pitch doing 134 knots at a rate of -112.27 feet/minute with 6,361 lbs of fuel onboard
Time In12:11:15 (11 minutes after landing)
Ramp Weight71,500 lbs total
Total Fuel Used14,180 lbs
Total Block Time04:03:56 (4.1 hours) while 12 minutes were spent on the ground
Arrival METARKIND 031654Z 30009KT 10SM SCT250 27/13 A3004 RMK AO2 SLP167 T02670128
MISCELLANEOUS DETAILS
LiveDISPATCH Version4.8.3.1
FS Version
FSUIPC Version4.93
OS VersionWindows 7 32-bit
Screen Resolution1920 x 1080
Pilot's CommentsNo Comments Reported
FLIGHT MAP